Time;durP1;ratioP1;P1;durP2;ratioP2;P2;SDS_P1;SDS_P2;PMS_P1;PMS_P2;Temp;Humidity;BMP_temperature;BMP_pressure;BME280_temperature;BME280_humidity;BME280_pressure;Samples;Min_cycle;Max_cycle;Signal;HPM_P1;HPM_P2
2022/09/02 00:00:50;;;;;;;1.63;1.53;;;14.50;99.90;;;;;;5070903;28;20689;-66
2022/09/02 00:03:16;;;;;;;2.20;1.67;;;14.50;99.90;;;;;;5063621;28;20496;-66
2022/09/02 00:05:42;;;;;;;2.63;1.50;;;14.50;99.90;;;;;;5070673;28;20187;-66
2022/09/02 00:08:09;;;;;;;1.70;1.60;;;14.50;99.90;;;;;;5061591;28;20191;-68
2022/09/02 00:10:37;;;;;;;1.70;1.53;;;14.40;99.90;;;;;;5070736;28;20269;-66
2022/09/02 00:13:05;;;;;;;2.07;1.77;;;14.40;99.90;;;;;;5061555;28;20201;-65
2022/09/02 00:15:31;;;;;;;2.23;1.70;;;14.40;99.90;;;;;;5070678;28;20224;-65
2022/09/02 00:17:57;;;;;;;3.57;1.60;;;14.40;99.90;;;;;;5060375;28;20199;-69
2022/09/02 00:20:22;;;;;;;2.03;1.83;;;14.40;99.90;;;;;;5070426;28;20277;-72
2022/09/02 00:22:48;;;;;;;2.23;1.70;;;14.40;99.90;;;;;;5049256;28;20274;-67
2022/09/02 00:25:13;;;;;;;1.43;1.33;;;14.40;99.90;;;;;;5069599;28;20206;-70
2022/09/02 00:27:39;;;;;;;3.67;1.53;;;14.40;99.90;;;;;;5049029;28;20274;-65
2022/09/02 00:30:05;;;;;;;2.63;1.80;;;14.40;99.90;;;;;;5069695;28;20630;-65
2022/09/02 00:32:31;;;;;;;1.60;1.50;;;14.40;99.90;;;;;;5049007;28;20210;-65
2022/09/02 00:34:57;;;;;;;3.53;1.90;;;14.40;99.90;;;;;;5069659;28;20198;-66
2022/09/02 00:37:24;;;;;;;1.80;1.40;;;14.30;99.90;;;;;;5049055;28;20626;-64
2022/09/02 00:39:53;;;;;;;1.47;1.40;;;14.20;99.90;;;;;;5050283;28;20540;-66
2022/09/02 00:42:20;;;;;;;1.70;1.60;;;14.20;99.90;;;;;;5067575;28;20217;-65
2022/09/02 00:44:46;;;;;;;1.77;1.67;;;14.20;99.90;;;;;;5070161;28;20286;-66
2022/09/02 00:47:14;;;;;;;1.43;1.33;;;14.20;99.90;;;;;;5067762;28;20190;-66
2022/09/02 00:49:42;;;;;;;1.70;1.60;;;14.30;99.90;;;;;;5069791;28;20277;-65
2022/09/02 00:52:19;;;;;;;1.60;1.50;;;14.40;99.90;;;;;;5068078;28;20348;-65
2022/09/02 00:54:55;;;;;;;1.87;1.27;;;14.40;99.90;;;;;;5070120;28;20198;-65
2022/09/02 00:57:23;;;;;;;5.13;1.53;;;14.40;99.90;;;;;;5053460;28;20200;-65
2022/09/02 01:00:12;;;;;;;1.53;1.20;;;14.40;99.90;;;;;;5069892;28;20174;-65
2022/09/02 01:02:40;;;;;;;1.47;1.27;;;14.50;99.90;;;;;;5055517;28;20198;-65
2022/09/02 01:05:09;;;;;;;3.07;1.47;;;14.50;99.90;;;;;;5049845;28;20221;-66
2022/09/02 01:07:37;;;;;;;1.87;1.40;;;14.60;99.90;;;;;;5067493;28;20561;-67
2022/09/02 01:10:07;;;;;;;1.20;1.10;;;14.60;99.90;;;;;;5069660;28;20201;-67
2022/09/02 01:12:34;;;;;;;1.43;1.33;;;14.60;99.90;;;;;;5067465;28;20210;-67
2022/09/02 01:15:01;;;;;;;1.50;1.23;;;14.60;99.90;;;;;;5069446;28;20244;-67
2022/09/02 01:17:27;;;;;;;1.10;1.00;;;14.60;99.90;;;;;;5067457;28;20222;-67
2022/09/02 01:19:58;;;;;;;1.73;1.53;;;14.60;99.90;;;;;;5069113;28;20209;-67
2022/09/02 01:22:27;;;;;;;1.90;1.17;;;14.70;99.90;;;;;;5052788;28;20284;-67
2022/09/02 01:24:56;;;;;;;1.40;1.30;;;14.70;99.90;;;;;;5069221;28;20218;-68
2022/09/02 01:27:23;;;;;;;2.00;1.63;;;14.70;99.90;;;;;;5047562;28;20199;-67
2022/09/02 01:29:57;;;;;;;2.97;1.40;;;14.70;99.90;;;;;;5049506;28;20183;-67
2022/09/02 01:32:23;;;;;;;1.10;1.10;;;14.70;99.90;;;;;;5052036;28;20198;-67
2022/09/02 01:34:49;;;;;;;1.07;1.07;;;14.70;99.90;;;;;;5069169;28;20182;-67
2022/09/02 01:37:16;;;;;;;1.13;1.03;;;14.70;99.90;;;;;;5047880;28;20289;-67
2022/09/02 01:39:42;;;;;;;5.23;1.17;;;14.70;99.90;;;;;;5049239;28;20179;-67
2022/09/02 01:42:08;;;;;;;1.30;1.20;;;14.70;99.90;;;;;;5066384;28;20202;-67
2022/09/02 01:44:37;;;;;;;1.53;1.43;;;14.70;99.90;;;;;;5069218;28;20214;-67
2022/09/02 01:47:03;;;;;;;1.90;1.70;;;14.70;99.90;;;;;;5066721;28;20205;-67
2022/09/02 01:49:29;;;;;;;1.50;1.40;;;14.70;99.90;;;;;;5068782;28;20238;-67
2022/09/02 01:51:54;;;;;;;1.00;1.00;;;14.60;99.90;;;;;;5066863;28;20205;-67
2022/09/02 01:54:20;;;;;;;1.73;1.57;;;14.50;99.90;;;;;;5068819;28;20171;-67
2022/09/02 01:56:46;;;;;;;6.73;2.90;;;14.50;99.90;;;;;;5068845;28;20186;-67
2022/09/02 01:59:16;;;;;;;2.23;1.60;;;14.40;99.90;;;;;;5066502;28;20213;-67
2022/09/02 02:01:42;;;;;;;3.27;1.70;;;14.40;99.90;;;;;;5048848;28;20182;-67
2022/09/02 02:04:08;;;;;;;3.80;1.30;;;14.40;99.90;;;;;;5066074;28;20338;-67
2022/09/02 02:06:34;;;;;;;2.63;1.43;;;14.40;99.90;;;;;;5049214;28;20270;-66
2022/09/02 02:08:59;;;;;;;1.57;1.47;;;14.40;99.90;;;;;;5048925;28;20253;-66
2022/09/02 02:11:25;;;;;;;1.57;1.47;;;14.40;99.90;;;;;;5067931;28;20608;-66
2022/09/02 02:13:50;;;;;;;2.53;1.93;;;14.40;99.90;;;;;;5063167;28;20199;-66
2022/09/02 02:16:16;;;;;;;2.67;1.43;;;14.40;99.90;;;;;;5068306;28;20289;-67
2022/09/02 02:18:41;;;;;;;1.33;1.23;;;14.40;99.90;;;;;;5061491;28;20198;-67
2022/09/02 02:21:07;;;;;;;1.73;1.40;;;14.40;99.90;;;;;;5067093;28;20222;-66
2022/09/02 02:23:33;;;;;;;1.40;1.30;;;14.40;99.90;;;;;;5060325;28;20286;-66
2022/09/02 02:25:58;;;;;;;2.00;1.50;;;14.40;99.90;;;;;;5068295;28;20216;-67
2022/09/02 02:28:24;;;;;;;1.40;1.30;;;14.30;99.90;;;;;;5058829;28;20228;-66
2022/09/02 02:30:49;;;;;;;1.37;1.27;;;14.30;99.90;;;;;;5067664;28;20212;-66
2022/09/02 02:33:15;;;;;;;3.07;1.60;;;14.20;99.90;;;;;;5047003;28;20984;-67
2022/09/02 02:35:41;;;;;;;1.90;1.33;;;14.10;99.90;;;;;;5067786;28;20269;-67
2022/09/02 02:38:07;;;;;;;3.53;1.40;;;14.10;99.90;;;;;;5046912;28;20285;-66
2022/09/02 02:40:33;;;;;;;1.73;1.60;;;14.10;99.90;;;;;;5067656;28;20186;-67
2022/09/02 02:42:58;;;;;;;1.77;1.43;;;14.10;99.90;;;;;;5047155;28;20221;-66
2022/09/02 02:45:25;;;;;;;1.90;1.43;;;14.10;99.90;;;;;;5067709;28;20609;-66
2022/09/02 02:47:51;;;;;;;1.63;1.43;;;14.00;99.90;;;;;;5046554;28;20248;-66
2022/09/02 02:50:19;;;;;;;2.30;1.13;;;14.00;99.90;;;;;;5058469;28;20410;-67
2022/09/02 02:52:46;;;;;;;2.13;1.30;;;13.90;99.90;;;;;;5046481;28;20206;-66
2022/09/02 02:55:12;;;;;;;5.10;1.20;;;13.80;99.90;;;;;;5048139;28;20181;-67
2022/09/02 02:57:38;;;;;;;2.00;1.13;;;13.80;99.90;;;;;;5065698;28;20610;-67
2022/09/02 03:00:12;;;;;;;1.70;1.33;;;13.80;99.90;;;;;;5068073;28;20187;-67
2022/09/02 03:02:37;;;;;;;1.40;1.30;;;13.70;99.90;;;;;;5050411;28;20198;-66
2022/09/02 03:05:06;;;;;;;1.83;1.70;;;13.60;99.90;;;;;;5068219;28;20321;-67
2022/09/02 03:07:31;;;;;;;2.40;1.40;;;13.60;99.90;;;;;;5046708;28;20294;-66
2022/09/02 03:09:57;;;;;;;1.80;1.47;;;13.50;99.90;;;;;;5048323;28;20257;-66
2022/09/02 03:12:23;;;;;;;1.43;1.20;;;13.50;99.90;;;;;;5065254;28;20663;-67
2022/09/02 03:14:49;;;;;;;2.63;1.50;;;13.50;99.90;;;;;;5068193;28;20177;-67
2022/09/02 03:17:15;;;;;;;3.07;1.83;;;13.50;99.90;;;;;;5065927;28;20202;-66
2022/09/02 03:19:40;;;;;;;1.87;1.70;;;13.50;99.90;;;;;;5067856;28;20204;-66
2022/09/02 03:22:06;;;;;;;6.03;1.43;;;13.50;99.90;;;;;;5067773;28;20196;-65
2022/09/02 03:24:31;;;;;;;3.30;1.57;;;13.40;99.90;;;;;;5065930;28;20275;-65
2022/09/02 03:26:57;;;;;;;1.57;1.17;;;13.30;99.90;;;;;;5067781;28;20188;-66
2022/09/02 03:29:22;;;;;;;3.47;1.70;;;13.30;99.90;;;;;;5064590;28;20202;-66
2022/09/02 03:31:48;;;;;;;1.50;1.40;;;13.20;99.90;;;;;;5067671;28;20217;-66
2022/09/02 03:34:13;;;;;;;1.93;1.60;;;13.20;99.90;;;;;;5062879;28;20210;-66
2022/09/02 03:36:43;;;;;;;2.50;1.63;;;13.20;99.90;;;;;;5067575;28;20186;-67
2022/09/02 03:39:10;;;;;;;1.73;1.63;;;13.10;99.90;;;;;;5061657;28;20201;-67
2022/09/02 03:41:36;;;;;;;2.30;1.77;;;13.10;99.90;;;;;;5068265;28;20201;-66
2022/09/02 03:44:02;;;;;;;1.70;1.60;;;13.00;99.90;;;;;;5064680;28;20210;-66
2022/09/02 03:46:28;;;;;;;1.50;1.40;;;12.90;99.90;;;;;;5062809;28;20198;-66
2022/09/02 03:48:53;;;;;;;1.77;1.60;;;13.00;99.90;;;;;;5055274;28;20199;-66
2022/09/02 03:51:20;;;;;;;3.80;2.00;;;13.00;99.90;;;;;;5069847;28;20229;-66
2022/09/02 03:53:46;;;;;;;3.30;2.07;;;12.90;99.90;;;;;;5061759;28;20703;-66
2022/09/02 03:56:14;;;;;;;1.37;1.27;;;12.90;99.90;;;;;;5070770;28;20194;-66
2022/09/02 03:58:40;;;;;;;1.97;1.40;;;12.90;99.90;;;;;;5049144;28;20280;-67
2022/09/02 04:01:06;;;;;;;1.87;1.70;;;12.80;99.90;;;;;;5070255;28;20198;-67
2022/09/02 04:03:32;;;;;;;2.27;1.80;;;12.80;99.90;;;;;;5049495;28;20264;-67
2022/09/02 04:05:57;;;;;;;3.33;3.03;;;12.80;99.90;;;;;;5070135;28;20596;-66
2022/09/02 04:08:23;;;;;;;2.80;2.07;;;12.80;99.90;;;;;;5049483;28;20198;-68
2022/09/02 04:10:49;;;;;;;4.00;1.90;;;12.80;99.90;;;;;;5070191;28;20185;-67
2022/09/02 04:13:15;;;;;;;1.80;1.70;;;12.90;99.90;;;;;;5049415;28;20194;-66
2022/09/02 04:15:43;;;;;;;2.90;1.97;;;12.90;99.90;;;;;;5050716;28;20190;-67
2022/09/02 04:18:10;;;;;;;2.50;2.20;;;12.80;99.90;;;;;;5068316;28;20652;-67
2022/09/02 04:20:38;;;;;;;3.17;2.53;;;12.80;99.90;;;;;;5070901;28;20260;-67
2022/09/02 04:23:04;;;;;;;2.77;2.13;;;12.80;99.90;;;;;;5068522;28;20276;-67
2022/09/02 04:25:30;;;;;;;3.70;2.40;;;12.80;99.90;;;;;;5070481;28;20269;-66
2022/09/02 04:27:56;;;;;;;2.90;1.87;;;12.80;99.90;;;;;;5068337;28;20747;-66
2022/09/02 04:30:24;;;;;;;4.57;2.13;;;12.90;99.90;;;;;;5070594;28;20262;-66
2022/09/02 04:32:50;;;;;;;3.23;2.30;;;13.00;99.90;;;;;;5068273;28;20206;-66
2022/09/02 04:35:16;;;;;;;3.93;2.10;;;13.00;99.90;;;;;;5070168;28;20185;-66
2022/09/02 04:37:41;;;;;;;3.37;2.20;;;13.10;99.90;;;;;;5068015;28;20206;-66
2022/09/02 04:40:07;;;;;;;2.70;2.50;;;13.10;99.90;;;;;;5068950;28;20669;-66
2022/09/02 04:42:33;;;;;;;3.77;1.70;;;13.10;99.90;;;;;;5067916;28;20190;-66
2022/09/02 04:44:59;;;;;;;3.20;1.87;;;13.20;99.90;;;;;;5070217;28;20210;-66
2022/09/02 04:47:26;;;;;;;2.90;2.30;;;13.30;99.90;;;;;;5069487;28;20182;-66
2022/09/02 04:49:52;;;;;;;3.67;1.77;;;13.30;99.90;;;;;;5067803;28;20236;-66
2022/09/02 04:52:19;;;;;;;2.57;1.77;;;13.40;99.90;;;;;;5069749;28;20615;-66
2022/09/02 04:54:45;;;;;;;3.27;1.67;;;13.40;99.90;;;;;;5066382;28;20186;-66
2022/09/02 04:57:10;;;;;;;2.43;1.67;;;13.50;99.90;;;;;;5069610;28;20710;-67
2022/09/02 04:59:36;;;;;;;4.43;2.10;;;13.50;99.90;;;;;;5065571;28;20386;-66
2022/09/02 05:02:02;;;;;;;2.63;2.43;;;13.50;99.90;;;;;;5069375;28;20828;-66
2022/09/02 05:04:30;;;;;;;5.67;2.60;;;13.60;99.90;;;;;;5064178;28;20208;-66
2022/09/02 05:06:57;;;;;;;5.80;3.33;;;13.50;99.90;;;;;;5069700;28;20214;-66
2022/09/02 05:09:22;;;;;;;5.77;3.20;;;13.50;99.90;;;;;;5063201;28;20259;-65
2022/09/02 05:11:48;;;;;;;4.33;2.37;;;13.60;99.90;;;;;;5069233;28;20680;-65
2022/09/02 05:14:15;;;;;;;7.40;2.97;;;13.60;99.90;;;;;;5062011;28;20198;-65
2022/09/02 05:16:41;;;;;;;5.57;2.90;;;13.50;99.90;;;;;;5069257;28;20304;-66
2022/09/02 05:19:10;;;;;;;3.20;2.87;;;13.60;99.90;;;;;;5060746;28;20197;-65
2022/09/02 05:21:43;;;;;;;4.13;2.87;;;13.50;99.90;;;;;;5069032;28;20206;-65
2022/09/02 05:24:09;;;;;;;3.93;2.63;;;13.60;99.90;;;;;;5060670;28;20210;-64
2022/09/02 05:26:34;;;;;;;4.83;2.57;;;13.60;99.90;;;;;;5068886;28;20231;-65
2022/09/02 05:29:01;;;;;;;3.57;2.17;;;13.70;99.90;;;;;;5059126;28;20190;-64
2022/09/02 05:31:27;;;;;;;4.83;2.33;;;13.80;99.90;;;;;;5067553;28;20277;-64
2022/09/02 05:33:53;;;;;;;3.33;2.20;;;13.80;99.90;;;;;;5047670;28;20211;-64
2022/09/02 05:36:21;;;;;;;3.47;2.10;;;13.90;99.90;;;;;;5068357;28;20834;-64
2022/09/02 05:38:47;;;;;;;3.23;2.30;;;14.00;99.90;;;;;;5047245;28;20742;-64
2022/09/02 05:41:18;;;;;;;6.47;2.33;;;14.00;99.90;;;;;;5068372;28;20201;-64
2022/09/02 05:43:44;;;;;;;3.30;2.43;;;14.10;99.90;;;;;;5055869;28;20292;-64
2022/09/02 05:46:13;;;;;;;2.70;2.30;;;14.20;99.90;;;;;;5054414;28;20690;-64
2022/09/02 05:51:23;;;;;;;3.67;3.27;;;14.50;99.90;;;;;;5068747;28;20710;-64
2022/09/02 05:53:53;;;;;;;2.47;2.10;;;14.70;99.90;;;;;;5066757;28;20233;-64
2022/09/02 05:56:20;;;;;;;4.30;2.60;;;14.80;99.90;;;;;;5068596;28;20231;-64
2022/09/02 05:58:45;;;;;;;4.00;2.53;;;14.90;99.90;;;;;;5047307;28;20199;-64
2022/09/02 06:01:13;;;;;;;2.23;1.97;;;15.00;99.90;;;;;;5067929;28;20264;-64
2022/09/02 06:03:39;;;;;;;3.27;2.33;;;15.10;99.90;;;;;;5046644;28;20221;-63
2022/09/02 06:06:06;;;;;;;4.40;2.07;;;15.20;99.90;;;;;;5067886;28;20175;-63
2022/09/02 06:08:33;;;;;;;1.83;1.60;;;15.30;99.90;;;;;;5047002;28;20194;-63
2022/09/02 06:11:02;;;;;;;2.33;2.10;;;15.40;99.90;;;;;;5048560;28;20183;-64
2022/09/02 06:13:29;;;;;;;3.13;2.03;;;15.40;99.90;;;;;;5066186;28;20198;-63
2022/09/02 06:15:54;;;;;;;5.40;3.10;;;15.50;99.90;;;;;;5068704;28;20198;-63
2022/09/02 06:18:20;;;;;;;5.93;2.30;;;15.60;99.90;;;;;;5066030;28;20190;-64
2022/09/02 06:20:46;;;;;;;3.03;2.23;;;15.80;99.90;;;;;;5068570;28;20889;-64
2022/09/02 06:23:13;;;;;;;3.03;1.93;;;15.80;99.90;;;;;;5066240;28;20709;-64
2022/09/02 06:25:41;;;;;;;2.70;2.13;;;15.90;99.90;;;;;;5068226;28;20178;-64
2022/09/02 06:28:08;;;;;;;1.83;1.50;;;16.00;99.90;;;;;;5066393;28;20188;-63
2022/09/02 06:30:33;;;;;;;4.20;2.40;;;16.00;99.90;;;;;;5068404;28;20174;-64
2022/09/02 06:33:02;;;;;;;7.70;2.50;;;16.10;99.90;;;;;;5066214;28;20714;-64
2022/09/02 06:35:27;;;;;;;2.67;1.87;;;16.10;99.90;;;;;;5068326;28;20645;-64
2022/09/02 06:37:53;;;;;;;6.47;2.30;;;16.20;99.90;;;;;;5066269;28;20190;-65
2022/09/02 06:40:18;;;;;;;4.83;2.20;;;16.20;99.90;;;;;;5068275;28;20615;-64
2022/09/02 06:42:44;;;;;;;3.47;2.40;;;16.30;99.90;;;;;;5067777;28;20198;-64
2022/09/02 06:45:10;;;;;;;1.73;1.63;;;16.40;99.90;;;;;;5065704;28;20211;-64
2022/09/02 06:47:35;;;;;;;7.00;2.87;;;16.50;99.90;;;;;;5067622;28;20273;-63
2022/09/02 06:50:01;;;;;;;3.57;2.37;;;16.50;99.90;;;;;;5063944;28;20629;-64
2022/09/02 06:52:27;;;;;;;6.53;2.70;;;16.50;99.90;;;;;;5048201;28;20188;-64
2022/09/02 06:54:53;;;;;;;4.00;2.43;;;16.60;99.90;;;;;;5049331;28;20210;-64
2022/09/02 06:57:20;;;;;;;3.70;2.67;;;16.80;99.90;;;;;;5067301;28;20531;-64
2022/09/02 06:59:45;;;;;;;6.23;2.17;;;16.90;99.90;;;;;;5061942;28;20237;-64
2022/09/02 07:02:11;;;;;;;2.73;2.10;;;16.90;99.90;;;;;;5067826;28;20223;-63
2022/09/02 07:07:21;;;;;;;6.40;2.60;;;16.90;99.90;;;;;;5067872;28;20264;-66
2022/09/02 07:09:47;;;;;;;2.90;2.37;;;17.00;99.90;;;;;;5050913;28;20204;-64
2022/09/02 07:12:14;;;;;;;4.63;2.27;;;17.10;99.90;;;;;;5067279;28;20733;-63
2022/09/02 07:14:42;;;;;;;5.83;2.80;;;17.10;99.90;;;;;;5060372;28;20202;-63
2022/09/02 07:17:11;;;;;;;3.93;2.83;;;17.00;99.90;;;;;;5069131;28;20206;-65
2022/09/02 07:19:37;;;;;;;4.63;2.00;;;17.10;99.90;;;;;;5063411;28;20214;-64
2022/09/02 07:22:04;;;;;;;4.30;2.17;;;17.10;99.90;;;;;;5071294;28;20194;-63
2022/09/02 07:24:29;;;;;;;5.77;2.30;;;17.20;99.90;;;;;;5062310;28;20276;-64
2022/09/02 07:26:55;;;;;;;3.93;2.20;;;17.30;99.90;;;;;;5071301;28;20646;-64
2022/09/02 07:29:20;;;;;;;3.20;2.23;;;17.40;99.90;;;;;;5061429;28;20210;-63
2022/09/02 07:31:47;;;;;;;4.33;3.07;;;17.50;99.90;;;;;;5071305;28;20591;-64
2022/09/02 07:34:13;;;;;;;3.60;2.27;;;17.60;99.90;;;;;;5049607;28;20232;-65
2022/09/02 07:36:39;;;;;;;6.57;2.57;;;17.70;99.90;;;;;;5070392;28;20282;-65
2022/09/02 07:39:07;;;;;;;5.60;2.73;;;17.70;99.90;;;;;;5050028;28;20342;-65
2022/09/02 07:41:33;;;;;;;2.70;2.30;;;17.70;99.90;;;;;;5070966;28;20204;-65
2022/09/02 07:43:59;;;;;;;3.47;2.33;;;17.80;99.90;;;;;;5049659;28;20257;-64
2022/09/02 07:46:25;;;;;;;3.83;2.07;;;17.90;99.90;;;;;;5062436;28;20654;-66
2022/09/02 07:48:50;;;;;;;3.33;2.53;;;17.80;99.90;;;;;;5064526;28;20200;-66
2022/09/02 07:51:19;;;;;;;3.53;2.10;;;17.80;99.90;;;;;;5050233;28;20315;-65
2022/09/02 07:53:45;;;;;;;3.43;2.07;;;17.80;99.90;;;;;;5067811;28;20459;-67
2022/09/02 07:56:12;;;;;;;1.93;1.73;;;17.80;99.90;;;;;;5070308;28;20592;-67
2022/09/02 07:58:42;;;;;;;3.47;2.07;;;17.90;99.90;;;;;;5068259;28;20252;-67
2022/09/02 08:01:09;;;;;;;5.83;2.87;;;18.00;99.90;;;;;;5064837;28;20211;-64
2022/09/02 08:03:35;;;;;;;4.37;2.20;;;18.00;99.90;;;;;;5066215;28;20200;-66
2022/09/02 08:06:01;;;;;;;2.87;2.33;;;18.10;99.90;;;;;;5053043;28;20177;-66
2022/09/02 08:08:27;;;;;;;3.07;2.10;;;18.20;99.90;;;;;;5066972;28;20226;-67
2022/09/02 08:10:53;;;;;;;3.33;1.73;;;18.20;99.90;;;;;;5070359;28;20175;-66
2022/09/02 08:13:20;;;;;;;3.77;1.73;;;18.30;99.90;;;;;;5068202;28;20704;-65
2022/09/02 08:15:45;;;;;;;3.73;2.10;;;18.30;99.90;;;;;;5070522;28;20230;-66
2022/09/02 08:18:12;;;;;;;3.63;2.20;;;18.20;99.90;;;;;;5070053;28;20187;-66
2022/09/02 08:20:37;;;;;;;1.70;1.60;;;18.30;99.90;;;;;;5049925;28;20660;-65
2022/09/02 08:23:05;;;;;;;3.13;2.10;;;18.50;99.90;;;;;;5068970;28;20270;-65
2022/09/02 08:25:31;;;;;;;5.13;2.17;;;18.70;99.90;;;;;;5067307;28;20252;-65
2022/09/02 08:27:57;;;;;;;3.87;2.00;;;18.80;99.90;;;;;;5049431;28;20200;-77
2022/09/02 08:30:23;;;;;;;4.50;1.70;;;18.90;99.90;;;;;;5049053;28;20279;-75
2022/09/02 08:32:48;;;;;;;2.27;1.33;;;19.00;99.90;;;;;;5069166;28;20683;-65
2022/09/02 08:35:14;;;;;;;3.83;2.20;;;19.20;99.90;;;;;;5065356;28;20217;-65
2022/09/02 08:37:39;;;;;;;1.90;1.20;;;19.30;99.90;;;;;;5070464;28;20548;-65
2022/09/02 08:40:11;;;;;;;1.50;1.40;;;19.40;99.90;;;;;;5061422;28;20559;-64
2022/09/02 08:42:43;;;;;;;6.57;1.50;;;19.60;99.90;;;;;;5049338;28;20197;-64
2022/09/02 08:45:31;;;;;;;2.53;1.40;;;19.60;99.90;;;;;;5063301;28;20773;-64
2022/09/02 08:48:14;;;;;;;1.50;1.40;;;19.70;99.90;;;;;;5069374;28;20252;-64
2022/09/02 08:50:44;;;;;;;1.37;1.27;;;19.70;99.90;;;;;;5067057;28;20232;-64
2022/09/02 08:53:42;;;;;;;3.70;1.40;;;19.60;99.40;;;;;;5069660;28;20188;-64
2022/09/02 08:56:10;;;;;;;3.03;1.47;;;19.60;99.70;;;;;;5049568;28;20184;-65
2022/09/02 08:58:40;;;;;;;0.97;0.73;;;19.70;99.00;;;;;;5064651;28;20651;-65
2022/09/02 09:01:11;;;;;;;1.73;1.10;;;19.70;98.10;;;;;;5049558;28;20181;-65
2022/09/02 09:03:42;;;;;;;1.13;1.00;;;19.70;97.90;;;;;;5066319;28;20695;-65
2022/09/02 09:06:11;;;;;;;2.17;1.40;;;19.70;98.50;;;;;;5069488;28;20205;-65
2022/09/02 09:08:45;;;;;;;1.27;1.03;;;19.80;98.00;;;;;;5066962;28;20189;-65
2022/09/02 09:11:35;;;;;;;1.00;0.70;;;19.90;97.60;;;;;;5069095;28;20234;-65
2022/09/02 09:14:19;;;;;;;2.13;1.00;;;19.90;97.00;;;;;;5067331;28;20723;-65
2022/09/02 09:16:52;;;;;;;2.00;1.50;;;19.90;96.80;;;;;;5068978;28;20185;-65
2022/09/02 09:19:33;;;;;;;3.70;1.10;;;20.00;96.40;;;;;;5054568;28;20229;-65
2022/09/02 09:22:02;;;;;;;1.33;1.23;;;20.00;96.10;;;;;;5049053;28;20548;-64
2022/09/02 09:24:36;;;;;;;1.27;1.17;;;20.10;96.60;;;;;;5047047;28;20209;-65
2022/09/02 09:27:08;;;;;;;1.57;1.07;;;20.20;94.60;;;;;;5048868;28;20219;-65
2022/09/02 09:29:35;;;;;;;2.50;1.20;;;20.20;94.80;;;;;;5056061;28;20335;-65
2022/09/02 09:32:01;;;;;;;1.30;1.07;;;20.30;95.70;;;;;;5049042;28;20197;-65
2022/09/02 09:34:52;;;;;;;2.17;1.37;;;20.40;95.30;;;;;;5065612;28;20194;-65
2022/09/02 09:37:53;;;;;;;2.57;1.20;;;20.60;94.60;;;;;;5048399;28;20183;-65
2022/09/02 09:40:24;;;;;;;0.80;0.80;;;20.80;93.90;;;;;;5057258;28;20202;-64
2022/09/02 09:43:09;;;;;;;2.73;0.90;;;20.80;93.30;;;;;;5048465;28;20203;-65
2022/09/02 09:45:37;;;;;;;3.40;1.30;;;20.90;93.40;;;;;;5063319;28;20582;-65
2022/09/02 09:48:15;;;;;;;1.63;1.00;;;21.00;92.50;;;;;;5068402;28;20170;-64
2022/09/02 09:50:46;;;;;;;3.13;0.90;;;21.00;92.90;;;;;;5063364;28;20225;-64
2022/09/02 09:53:19;;;;;;;1.03;0.93;;;21.10;92.20;;;;;;5048588;28;20186;-65
2022/09/02 09:55:52;;;;;;;1.17;0.77;;;21.30;90.70;;;;;;5066011;28;20715;-64
2022/09/02 09:58:18;;;;;;;1.03;0.90;;;21.50;89.70;;;;;;5047794;28;20431;-64
2022/09/02 10:00:43;;;;;;;1.00;0.90;;;21.70;89.50;;;;;;5047393;28;20802;-64
2022/09/02 10:03:21;;;;;;;0.82;0.70;;;21.90;89.40;;;;;;5067613;28;20214;-64
2022/09/02 10:05:52;;;;;;;0.77;0.77;;;22.00;85.20;;;;;;5064721;28;20193;-64
2022/09/02 10:08:21;;;;;;;2.10;1.20;;;21.70;85.40;;;;;;5067740;28;20541;-64
2022/09/02 10:11:18;;;;;;;0.80;0.80;;;21.70;85.50;;;;;;5064411;28;20194;-64
2022/09/02 10:13:43;;;;;;;0.90;0.90;;;21.80;84.80;;;;;;5047213;28;20350;-64
2022/09/02 10:16:30;;;;;;;1.77;1.17;;;21.70;84.20;;;;;;5067794;28;20193;-64
2022/09/02 10:19:08;;;;;;;1.20;0.87;;;21.60;84.80;;;;;;5047809;28;20190;-64
2022/09/02 10:22:03;;;;;;;1.43;1.10;;;21.50;84.10;;;;;;5068436;28;20727;-66
2022/09/02 10:24:47;;;;;;;2.50;0.93;;;21.70;84.30;;;;;;5052839;28;20209;-64
2022/09/02 10:27:16;;;;;;;2.13;1.00;;;21.90;84.40;;;;;;5047847;28;20175;-64
2022/09/02 10:29:58;;;;;;;1.93;1.03;;;22.20;83.80;;;;;;5057218;28;20745;-64
2022/09/02 10:32:47;;;;;;;2.20;1.03;;;22.50;80.70;;;;;;5047773;28;20214;-64
2022/09/02 10:35:40;;;;;;;2.10;1.03;;;22.50;81.20;;;;;;5058664;28;20706;-65
2022/09/02 10:38:20;;;;;;;2.17;1.07;;;22.50;79.80;;;;;;5047473;28;20187;-65
2022/09/02 10:40:53;;;;;;;1.00;0.90;;;22.20;80.10;;;;;;5062499;28;20194;-65
2022/09/02 10:43:45;;;;;;;1.13;1.00;;;21.80;79.70;;;;;;5047978;28;20682;-65
2022/09/02 10:46:17;;;;;;;1.57;1.47;;;21.90;82.90;;;;;;5047174;28;20229;-65
2022/09/02 10:48:51;;;;;;;4.20;1.23;;;22.20;79.50;;;;;;5047403;28;20181;-64
2022/09/02 10:51:43;;;;;;;2.40;1.07;;;22.30;78.70;;;;;;5047108;28;20237;-64
2022/09/02 10:54:45;;;;;;;0.93;0.93;;;22.50;78.70;;;;;;5052608;28;20217;-64
2022/09/02 10:57:30;;;;;;;1.53;0.97;;;22.60;76.10;;;;;;5052177;28;20186;-64
2022/09/02 11:00:09;;;;;;;1.00;0.90;;;22.40;75.00;;;;;;5058473;28;20194;-64
2022/09/02 11:02:43;;;;;;;3.73;0.80;;;22.00;75.70;;;;;;5051340;28;20213;-64
2022/09/02 11:05:18;;;;;;;1.40;1.00;;;21.90;77.30;;;;;;5057408;28;20213;-64
2022/09/02 11:07:59;;;;;;;1.90;1.33;;;22.00;75.70;;;;;;5051298;28;20209;-65
2022/09/02 11:10:34;;;;;;;1.33;1.17;;;22.00;76.00;;;;;;5062397;28;20273;-64
2022/09/02 11:13:29;;;;;;;1.00;1.00;;;22.00;76.90;;;;;;5051210;28;20601;-64
2022/09/02 11:16:21;;;;;;;2.27;1.10;;;22.00;75.70;;;;;;5031680;28;20213;-64
2022/09/02 11:18:59;;;;;;;2.37;0.87;;;22.00;77.90;;;;;;5051172;28;20195;-64
2022/09/02 11:22:07;;;;;;;1.23;1.13;;;22.10;74.10;;;;;;5051237;28;20672;-64
2022/09/02 11:24:43;;;;;;;1.00;1.00;;;22.10;75.40;;;;;;5054814;28;20224;-64
2022/09/02 11:27:17;;;;;;;1.43;1.00;;;22.10;76.50;;;;;;5071237;28;20197;-64
2022/09/02 11:30:15;;;;;;;1.60;1.20;;;22.40;77.30;;;;;;5055640;28;20267;-64
2022/09/02 11:32:55;;;;;;;1.83;1.10;;;22.90;74.90;;;;;;5055759;28;20607;-64
2022/09/02 11:35:25;;;;;;;0.97;0.87;;;23.30;71.40;;;;;;5058538;28;20193;-64
2022/09/02 11:38:06;;;;;;;2.50;1.43;;;23.40;69.80;;;;;;5050267;28;20550;-65
2022/09/02 11:40:38;;;;;;;2.88;1.52;;;23.70;68.50;;;;;;5061745;28;20213;-65
2022/09/02 11:43:30;;;;;;;0.85;0.85;;;23.90;64.90;;;;;;5050206;28;20197;-64
2022/09/02 11:46:01;;;;;;;1.17;0.80;;;23.70;64.80;;;;;;5064291;28;20182;-65
2022/09/02 11:48:56;;;;;;;1.30;1.00;;;23.40;65.60;;;;;;5069702;28;20192;-65
2022/09/02 11:51:55;;;;;;;0.90;0.90;;;23.30;65.80;;;;;;5068314;28;20209;-64
2022/09/02 11:54:22;;;;;;;4.73;1.30;;;23.00;66.00;;;;;;5048257;28;20940;-64
2022/09/02 11:56:55;;;;;;;1.10;1.00;;;22.90;67.30;;;;;;5050058;28;20186;-64
2022/09/02 11:59:43;;;;;;;0.63;0.63;;;23.10;68.50;;;;;;5065696;28;20258;-64
2022/09/02 12:02:10;;;;;;;1.37;0.90;;;23.50;66.80;;;;;;5069952;28;20261;-64
2022/09/02 12:04:35;;;;;;;2.05;0.75;;;23.80;66.60;;;;;;5048413;28;20215;-65
2022/09/02 12:07:07;;;;;;;1.57;1.07;;;24.00;67.30;;;;;;5050051;28;20516;-65
2022/09/02 12:09:50;;;;;;;1.83;0.90;;;24.20;67.10;;;;;;5067836;28;20541;-65
2022/09/02 12:12:37;;;;;;;0.95;0.95;;;24.70;62.50;;;;;;5064919;28;20179;-65
2022/09/02 12:15:07;;;;;;;1.33;0.80;;;25.10;61.40;;;;;;5048419;28;20203;-65
2022/09/02 12:17:42;;;;;;;0.85;0.85;;;25.60;59.50;;;;;;5069288;28;20343;-64
2022/09/02 12:20:30;;;;;;;1.00;1.00;;;25.90;57.00;;;;;;5056493;28;20277;-64
2022/09/02 12:22:57;;;;;;;1.23;0.82;;;26.00;56.60;;;;;;5049189;28;20284;-64
2022/09/02 12:25:27;;;;;;;0.95;0.88;;;26.20;56.30;;;;;;5066214;28;20225;-64
2022/09/02 12:28:13;;;;;;;3.45;1.05;;;26.60;56.40;;;;;;5049810;28;20198;-65
2022/09/02 12:31:07;;;;;;;0.80;0.80;;;26.40;53.70;;;;;;5054354;28;20195;-77
2022/09/02 12:33:35;;;;;;;9.38;1.33;;;25.70;55.60;;;;;;5068748;28;20695;-61
2022/09/02 12:36:03;;;;;;;1.67;1.05;;;25.40;56.10;;;;;;5063336;28;20599;-63
2022/09/02 12:38:31;;;;;;;3.03;0.93;;;25.60;56.10;;;;;;5069290;28;20196;-66
2022/09/02 12:41:03;;;;;;;2.78;1.20;;;25.90;56.60;;;;;;5062144;28;20217;-64
2022/09/02 12:43:48;;;;;;;4.72;1.50;;;26.40;55.00;;;;;;5049472;28;20301;-66
2022/09/02 12:46:35;;;;;;;9.75;1.98;;;26.90;53.80;;;;;;5063704;28;20203;-64
2022/09/02 12:49:34;;;;;;;4.25;1.65;;;27.20;52.80;;;;;;5049228;28;20589;-66
2022/09/02 12:52:01;;;;;;;1.73;1.05;;;27.30;52.90;;;;;;5048833;28;20206;-65
2022/09/02 12:54:41;;;;;;;1.00;1.00;;;27.60;52.00;;;;;;5047871;28;20664;-72
2022/09/02 12:57:08;;;;;;;1.00;0.90;;;28.00;51.40;;;;;;5048527;28;20220;-67
2022/09/02 12:59:38;;;;;;;1.10;0.93;;;28.40;50.10;;;;;;5063059;28;20206;-68
2022/09/02 13:02:18;;;;;;;1.05;1.05;;;28.70;49.60;;;;;;5048748;28;20185;-66
2022/09/02 13:05:05;;;;;;;0.90;0.85;;;28.80;48.30;;;;;;5052346;28;20218;-67
2022/09/02 13:08:05;;;;;;;1.35;1.17;;;28.10;48.80;;;;;;5057242;28;20727;-66
2022/09/02 13:11:09;;;;;;;0.98;0.98;;;27.00;50.40;;;;;;5057742;28;20208;-68